createdAt,value
2022-11-03T00:01:50.964Z,11.67
2022-11-03T00:04:21.226Z,11.67
2022-11-03T00:06:51.474Z,11.66
2022-11-03T00:09:21.010Z,11.73
2022-11-03T00:11:50.855Z,11.52
2022-11-03T00:14:19.120Z,11.62
2022-11-03T00:16:49.253Z,11.71
2022-11-03T00:19:17.638Z,11.84
2022-11-03T00:21:46.440Z,11.95
2022-11-03T00:24:14.885Z,12.00
2022-11-03T00:26:42.922Z,11.81
2022-11-03T00:29:12.852Z,11.86
2022-11-03T00:31:42.542Z,11.84
2022-11-03T00:34:12.840Z,11.93
2022-11-03T00:36:42.740Z,11.97
2022-11-03T00:39:11.174Z,11.91
2022-11-03T00:41:39.468Z,11.89
2022-11-03T00:44:08.449Z,11.90
2022-11-03T00:46:36.404Z,11.50
2022-11-03T00:49:06.161Z,11.14
2022-11-03T00:51:36.279Z,11.09
2022-11-03T00:54:05.706Z,10.98
2022-11-03T00:56:35.327Z,10.80
2022-11-03T00:59:04.330Z,10.43
2022-11-03T01:01:40.564Z,10.57
2022-11-03T01:04:29.784Z,10.75
2022-11-03T01:07:00.535Z,10.53
2022-11-03T01:09:29.908Z,10.20
2022-11-03T01:11:59.001Z,10.45
2022-11-03T01:14:29.451Z,10.57
2022-11-03T01:16:57.394Z,10.72
2022-11-03T01:19:25.393Z,10.81
2022-11-03T01:21:53.909Z,10.64
2022-11-03T01:24:23.367Z,10.65
2022-11-03T01:26:51.485Z,10.23
2022-11-03T01:29:19.803Z,10.08
2022-11-03T01:31:47.869Z,10.19
2022-11-03T01:34:16.897Z,10.43
2022-11-03T01:36:45.398Z,10.40
2022-11-03T01:39:14.649Z,10.59
2022-11-03T01:41:45.206Z,10.67
2022-11-03T01:44:29.290Z,10.51
2022-11-03T01:47:02.084Z,10.63
2022-11-03T01:49:36.993Z,10.66
2022-11-03T01:52:10.815Z,10.84
2022-11-03T01:54:40.332Z,10.83
2022-11-03T01:57:14.844Z,11.02
2022-11-03T01:59:44.375Z,11.17
2022-11-03T02:02:12.886Z,11.21
2022-11-03T02:04:41.211Z,11.19
2022-11-03T02:07:26.341Z,11.12
2022-11-03T02:09:54.361Z,11.13
2022-11-03T02:12:24.401Z,11.17
2022-11-03T02:14:56.572Z,11.10
2022-11-03T02:17:27.985Z,11.04
2022-11-03T02:19:59.650Z,10.80
2022-11-03T02:23:03.321Z,10.45
2022-11-03T02:25:41.559Z,10.68
2022-11-03T02:28:09.897Z,10.42
2022-11-03T02:30:43.424Z,10.25
2022-11-03T02:33:21.713Z,10.14
2022-11-03T02:35:57.643Z,10.42
2022-11-03T02:38:29.405Z,10.38
2022-11-03T02:41:04.517Z,10.40
2022-11-03T02:43:33.154Z,10.17
2022-11-03T02:46:03.381Z,9.81
2022-11-03T02:48:31.690Z,9.88
2022-11-03T02:50:59.667Z,10.08
2022-11-03T02:53:30.774Z,10.00
2022-11-03T02:56:05.056Z,10.30
2022-11-03T02:58:38.927Z,10.53
2022-11-03T03:01:15.226Z,10.61
2022-11-03T03:03:48.324Z,10.55
2022-11-03T03:06:23.707Z,10.51
2022-11-03T03:08:56.653Z,10.53
2022-11-03T03:11:38.783Z,10.24
2022-11-03T03:14:11.475Z,10.46
2022-11-03T03:16:49.163Z,10.68
2022-11-03T03:19:28.156Z,10.73
2022-11-03T03:21:58.718Z,10.51
2022-11-03T03:24:35.230Z,10.28
2022-11-03T03:27:08.923Z,10.62
2022-11-03T03:29:43.330Z,10.78
2022-11-03T03:32:12.096Z,10.91
2022-11-03T03:34:42.968Z,10.94
2022-11-03T03:37:13.531Z,11.04
2022-11-03T03:39:47.643Z,11.10
2022-11-03T03:42:18.992Z,11.23
2022-11-03T03:44:48.021Z,10.97
2022-11-03T03:47:24.481Z,10.79
2022-11-03T03:49:52.608Z,10.91
2022-11-03T03:52:21.350Z,11.12
2022-11-03T03:54:49.455Z,11.12
2022-11-03T03:57:21.552Z,11.25
2022-11-03T03:59:49.687Z,11.40
2022-11-03T04:02:17.954Z,11.32
2022-11-03T04:04:46.168Z,11.19
2022-11-03T04:07:31.759Z,11.13
2022-11-03T04:09:59.791Z,11.25
2022-11-03T04:12:46.350Z,11.09
2022-11-03T04:15:32.530Z,10.29
2022-11-03T04:18:17.794Z,10.65
2022-11-03T04:21:02.954Z,10.60
2022-11-03T04:23:30.847Z,10.81
2022-11-03T04:26:00.323Z,10.50
2022-11-03T04:28:30.529Z,10.46
2022-11-03T04:30:59.808Z,10.63
2022-11-03T04:33:28.186Z,10.91
2022-11-03T04:35:59.053Z,10.98
2022-11-03T04:38:29.119Z,11.15
2022-11-03T04:40:59.107Z,10.76
2022-11-03T04:43:35.935Z,10.97
2022-11-03T04:46:04.339Z,11.11
2022-11-03T04:48:34.857Z,11.08
2022-11-03T04:51:12.263Z,10.77
2022-11-03T04:53:44.961Z,11.05
2022-11-03T04:56:17.337Z,11.09
2022-11-03T04:58:48.273Z,10.93
2022-11-03T05:01:23.937Z,10.99
2022-11-03T05:03:54.442Z,11.24
2022-11-03T05:06:24.433Z,11.06
2022-11-03T05:08:56.194Z,10.61
2022-11-03T05:11:30.675Z,10.89
2022-11-03T05:14:02.656Z,11.02
2022-11-03T05:16:32.600Z,11.18
2022-11-03T05:19:01.205Z,11.11
2022-11-03T05:21:29.525Z,11.23
2022-11-03T05:24:11.344Z,11.31
2022-11-03T05:26:39.602Z,11.31
2022-11-03T05:29:16.750Z,11.45
2022-11-03T05:31:47.686Z,11.62
2022-11-03T05:34:30.538Z,11.58
2022-11-03T05:36:59.835Z,11.64
2022-11-03T05:39:31.639Z,11.41
2022-11-03T05:42:00.861Z,11.59
2022-11-03T05:44:36.915Z,11.74
2022-11-03T05:47:10.217Z,11.93
2022-11-03T05:49:38.336Z,11.96
2022-11-03T05:52:14.494Z,11.63
2022-11-03T05:54:42.596Z,11.69
2022-11-03T05:57:12.671Z,11.52
2022-11-03T05:59:46.604Z,11.01
2022-11-03T06:02:29.835Z,10.96
2022-11-03T06:04:59.333Z,11.15
2022-11-03T06:07:30.464Z,11.49
2022-11-03T06:09:59.175Z,11.57
2022-11-03T06:12:27.504Z,11.29
2022-11-03T06:14:56.970Z,11.64
2022-11-03T06:17:27.311Z,11.67
2022-11-03T06:19:57.978Z,11.83
2022-11-03T06:22:28.640Z,11.98
2022-11-03T06:25:00.586Z,12.02
2022-11-03T06:27:33.395Z,12.12
2022-11-03T06:30:23.100Z,12.21
2022-11-03T06:32:51.190Z,12.14
2022-11-03T06:35:20.028Z,11.99
2022-11-03T06:37:48.082Z,12.23
2022-11-03T06:40:34.854Z,12.05
2022-11-03T06:43:21.691Z,12.14
2022-11-03T06:45:56.720Z,12.31
2022-11-03T06:48:27.156Z,12.44
2022-11-03T06:50:56.040Z,12.43
2022-11-03T06:53:30.848Z,12.57
2022-11-03T06:55:59.200Z,12.45
2022-11-03T06:58:33.815Z,12.45
2022-11-03T07:01:11.159Z,12.49
2022-11-03T07:03:39.250Z,12.21
2022-11-03T07:06:17.576Z,11.58
2022-11-03T07:08:47.694Z,11.41
2022-11-03T07:11:19.280Z,11.77
2022-11-03T07:13:49.019Z,11.72
2022-11-03T07:16:29.099Z,11.98
2022-11-03T07:19:00.314Z,12.27
2022-11-03T07:21:35.880Z,12.41
2022-11-03T07:24:14.526Z,12.13
2022-11-03T07:26:42.531Z,12.22
2022-11-03T07:29:18.215Z,12.26
2022-11-03T07:31:47.598Z,12.42
2022-11-03T07:34:20.537Z,12.71
2022-11-03T07:36:54.394Z,12.82
2022-11-03T07:39:23.908Z,12.77
2022-11-03T07:41:52.618Z,12.65
2022-11-03T07:44:22.238Z,12.61
2022-11-03T07:46:52.365Z,12.45
2022-11-03T07:49:28.202Z,12.69
2022-11-03T07:51:57.421Z,12.84
2022-11-03T07:54:29.551Z,13.00
2022-11-03T07:56:59.314Z,13.02
2022-11-03T07:59:32.111Z,13.01
2022-11-03T08:02:03.061Z,13.18
2022-11-03T08:04:34.976Z,13.24
2022-11-03T08:07:03.023Z,13.31
2022-11-03T08:09:30.930Z,13.31
2022-11-03T08:11:58.808Z,13.27
2022-11-03T08:14:27.436Z,13.09
2022-11-03T08:16:55.443Z,13.24
2022-11-03T08:19:24.712Z,13.23
2022-11-03T08:21:52.652Z,13.07
2022-11-03T08:24:20.647Z,13.23
2022-11-03T08:26:49.123Z,13.34
2022-11-03T08:29:17.793Z,13.45
2022-11-03T08:31:45.786Z,13.31
2022-11-03T08:34:13.999Z,13.14
2022-11-03T08:36:43.751Z,13.26
2022-11-03T08:39:11.743Z,13.29
2022-11-03T08:41:39.754Z,13.39
2022-11-03T08:44:07.912Z,13.60
2022-11-03T08:46:36.376Z,13.73
2022-11-03T08:49:04.551Z,13.70
2022-11-03T08:51:32.561Z,13.75
2022-11-03T08:54:01.916Z,13.87
2022-11-03T08:56:30.315Z,13.84
2022-11-03T08:58:58.208Z,13.79
2022-11-03T09:01:26.238Z,13.85
2022-11-03T09:03:56.973Z,13.90
2022-11-03T09:06:25.002Z,13.98
2022-11-03T09:11:42.148Z,13.94
2022-11-03T09:14:10.136Z,14.08
2022-11-03T09:16:38.479Z,14.30
2022-11-03T09:19:06.428Z,14.35
2022-11-03T09:21:36.930Z,14.45
2022-11-03T09:24:05.540Z,14.70
2022-11-03T09:26:33.543Z,14.78
2022-11-03T09:29:02.813Z,14.72
2022-11-03T09:31:30.763Z,14.87
2022-11-03T09:34:01.495Z,14.81
2022-11-03T09:36:29.860Z,14.97
2022-11-03T09:38:57.763Z,15.10
2022-11-03T09:41:27.599Z,15.24
2022-11-03T09:44:05.091Z,15.35
2022-11-03T09:46:33.216Z,15.44
2022-11-03T09:49:01.107Z,15.43
2022-11-03T09:51:29.814Z,15.43
2022-11-03T09:54:01.775Z,15.61
2022-11-03T09:56:29.938Z,15.69
2022-11-03T09:59:00.331Z,15.75
2022-11-03T10:01:29.817Z,15.77
2022-11-03T10:04:01.827Z,15.81
2022-11-03T10:06:30.602Z,15.93
2022-11-03T10:08:58.499Z,16.07
2022-11-03T10:11:26.518Z,16.14
2022-11-03T10:13:57.590Z,16.15
2022-11-03T10:16:27.395Z,16.13
2022-11-03T10:18:56.895Z,16.19
2022-11-03T10:21:28.676Z,16.26
2022-11-03T10:23:56.768Z,16.38
2022-11-03T10:26:24.961Z,16.43
2022-11-03T10:29:01.112Z,16.41
2022-11-03T10:31:36.634Z,16.61
2022-11-03T10:34:07.221Z,16.73
2022-11-03T10:36:35.966Z,16.77
2022-11-03T10:39:26.118Z,16.79
2022-11-03T10:41:58.939Z,16.62
2022-11-03T10:44:29.127Z,16.45
2022-11-03T10:46:59.456Z,16.27
2022-11-03T10:49:30.685Z,16.64
2022-11-03T10:52:18.492Z,16.90
2022-11-03T10:54:47.251Z,16.84
2022-11-03T10:57:16.284Z,17.18
2022-11-03T10:59:45.918Z,17.26
2022-11-03T11:02:19.302Z,17.43
2022-11-03T11:04:50.333Z,17.43
2022-11-03T11:07:24.874Z,17.61
2022-11-03T11:09:53.139Z,17.93
2022-11-03T11:12:24.495Z,17.90
2022-11-03T11:14:57.875Z,18.07
2022-11-03T11:17:47.957Z,18.18
2022-11-03T11:20:35.659Z,18.21
2022-11-03T11:23:48.954Z,18.37
2022-11-03T11:26:34.808Z,18.60
2022-11-03T11:29:44.514Z,18.88
2022-11-03T11:32:56.770Z,18.95
2022-11-03T11:36:04.705Z,18.91
2022-11-03T11:39:10.475Z,19.14
2022-11-03T11:42:10.768Z,19.30
2022-11-03T11:44:57.710Z,19.63
2022-11-03T11:47:32.310Z,19.50
2022-11-03T11:50:32.461Z,19.66
2022-11-03T11:53:13.597Z,19.96
2022-11-03T11:55:51.119Z,20.05
2022-11-03T11:58:23.575Z,20.25
2022-11-03T12:00:57.927Z,20.17
2022-11-03T12:03:30.634Z,20.20
2022-11-03T12:05:59.191Z,20.44
2022-11-03T12:08:32.140Z,20.74
2022-11-03T12:11:03.574Z,20.91
2022-11-03T12:13:53.132Z,21.21
2022-11-03T12:16:31.387Z,21.27
2022-11-03T12:19:19.604Z,21.22
2022-11-03T12:21:48.853Z,21.16
2022-11-03T12:24:40.443Z,21.33
2022-11-03T12:27:42.006Z,21.29
2022-11-03T12:30:15.554Z,21.04
2022-11-03T12:32:43.683Z,20.98
2022-11-03T12:35:13.629Z,21.15
2022-11-03T12:37:42.143Z,21.21
2022-11-03T12:40:12.378Z,21.54
2022-11-03T12:42:41.671Z,21.79
2022-11-03T12:45:10.484Z,21.71
2022-11-03T12:47:38.410Z,21.97
2022-11-03T12:50:06.894Z,22.21
2022-11-03T12:52:34.857Z,22.18
2022-11-03T12:55:03.067Z,21.92
2022-11-03T12:57:30.975Z,21.78
2022-11-03T13:00:00.314Z,21.51
2022-11-03T13:02:28.349Z,21.74
2022-11-03T13:04:56.435Z,21.72
2022-11-03T13:07:30.331Z,21.79
2022-11-03T13:10:01.547Z,21.66
2022-11-03T13:12:32.279Z,21.33
2022-11-03T13:15:03.113Z,21.75
2022-11-03T13:17:40.241Z,21.96
2022-11-03T13:20:14.401Z,21.92
2022-11-03T13:22:42.386Z,21.79
2022-11-03T13:25:10.635Z,21.72
2022-11-03T13:27:38.572Z,21.91
2022-11-03T13:30:09.584Z,22.04
2022-11-03T13:32:37.484Z,22.01
2022-11-03T13:35:09.532Z,21.98
2022-11-03T13:37:41.461Z,21.99
2022-11-03T13:40:29.432Z,21.87
2022-11-03T13:42:58.869Z,21.63
2022-11-03T13:45:28.531Z,21.68
2022-11-03T13:48:48.498Z,21.80
2022-11-03T13:50:45.438Z,21.73
2022-11-03T13:56:06.825Z,21.50
2022-11-03T14:01:26.541Z,20.66
2022-11-03T14:06:42.439Z,20.28
2022-11-03T14:09:10.485Z,20.16
2022-11-03T14:11:55.982Z,20.02
2022-11-03T14:14:24.273Z,19.82
2022-11-03T14:16:53.673Z,19.41
2022-11-03T14:19:21.745Z,18.35
2022-11-03T14:21:49.641Z,17.51
2022-11-03T14:24:17.954Z,16.18
2022-11-03T14:26:46.008Z,15.62
2022-11-03T14:29:13.903Z,15.17
2022-11-03T14:31:41.937Z,14.84
2022-11-03T14:34:11.419Z,14.55
2022-11-03T14:36:39.372Z,14.35
2022-11-03T14:39:07.309Z,14.13
2022-11-03T14:41:52.334Z,13.90
2022-11-03T14:44:20.256Z,13.48
2022-11-03T14:46:48.159Z,13.41
2022-11-03T14:49:17.787Z,13.47
2022-11-03T14:51:45.867Z,13.41
2022-11-03T14:54:13.808Z,13.42
2022-11-03T14:56:41.880Z,13.21
2022-11-03T14:59:09.810Z,13.17
2022-11-03T15:01:38.796Z,13.50
2022-11-03T15:04:07.889Z,13.38
2022-11-03T15:06:37.405Z,13.00
2022-11-03T15:09:05.923Z,12.86
2022-11-03T15:11:34.169Z,12.71
2022-11-03T15:14:02.724Z,12.65
2022-11-03T15:16:30.762Z,12.67
2022-11-03T15:18:59.264Z,12.76
2022-11-03T15:21:28.139Z,12.81
2022-11-03T15:26:45.704Z,12.75
2022-11-03T15:29:14.525Z,12.74
2022-11-03T15:31:47.577Z,12.78
2022-11-03T15:34:16.529Z,12.82
2022-11-03T15:36:44.697Z,12.91
2022-11-03T15:39:14.324Z,12.85
2022-11-03T15:41:42.232Z,12.90
2022-11-03T15:44:10.144Z,12.96
2022-11-03T15:46:38.171Z,12.92
2022-11-03T15:49:06.074Z,13.05
2022-11-03T15:51:34.214Z,12.99
2022-11-03T15:54:02.531Z,13.13
2022-11-03T15:56:31.848Z,13.27
2022-11-03T15:58:59.741Z,13.33
2022-11-03T16:01:29.193Z,13.36
2022-11-03T16:03:57.221Z,13.35
2022-11-03T16:06:46.451Z,13.56
2022-11-03T16:09:13.226Z,13.72
2022-11-03T16:11:42.485Z,13.86
2022-11-03T16:14:10.516Z,13.88
2022-11-03T16:16:38.553Z,13.90
2022-11-03T16:19:06.473Z,13.85
2022-11-03T16:21:34.403Z,13.74
2022-11-03T16:24:02.325Z,13.56
2022-11-03T16:26:31.556Z,13.73
2022-11-03T16:29:00.930Z,13.77
2022-11-03T16:31:28.874Z,13.76
2022-11-03T16:33:56.901Z,13.82
2022-11-03T16:36:24.967Z,13.54
2022-11-03T16:38:53.311Z,13.65
2022-11-03T16:41:21.238Z,13.73
2022-11-03T16:43:50.001Z,13.67
2022-11-03T16:46:19.258Z,13.66
2022-11-03T16:48:47.227Z,13.55
2022-11-03T16:51:15.265Z,13.65
2022-11-03T16:53:43.486Z,13.55
2022-11-03T16:56:11.418Z,13.39
2022-11-03T16:58:39.360Z,13.24
2022-11-03T17:01:07.567Z,13.29
2022-11-03T17:03:37.155Z,13.03
2022-11-03T17:06:05.316Z,13.04
2022-11-03T17:09:01.806Z,13.02
2022-11-03T17:11:36.171Z,13.16
2022-11-03T17:14:06.263Z,12.97
2022-11-03T17:16:34.347Z,12.95
2022-11-03T17:19:03.738Z,13.13
2022-11-03T17:21:31.923Z,13.02
2022-11-03T17:24:00.065Z,13.10
2022-11-03T17:26:36.506Z,12.94
2022-11-03T17:29:06.922Z,12.98
2022-11-03T17:31:34.947Z,12.89
2022-11-03T17:34:04.498Z,13.01
2022-11-03T17:36:33.453Z,13.17
2022-11-03T17:39:01.428Z,13.32
2022-11-03T17:41:29.331Z,13.26
2022-11-03T17:43:57.321Z,13.02
2022-11-03T17:46:25.260Z,12.91
2022-11-03T17:48:53.176Z,13.01
2022-11-03T17:51:23.660Z,12.99
2022-11-03T17:53:52.720Z,13.08
2022-11-03T17:56:30.596Z,13.12
2022-11-03T17:58:59.307Z,13.10
2022-11-03T18:01:28.172Z,13.08
2022-11-03T18:03:56.306Z,13.09
2022-11-03T18:06:26.007Z,13.13
2022-11-03T18:08:54.033Z,13.15
2022-11-03T18:11:44.696Z,13.11
2022-11-03T18:14:13.115Z,13.24
2022-11-03T18:16:41.756Z,12.99
2022-11-03T18:19:12.982Z,13.04
2022-11-03T18:21:42.437Z,13.11
2022-11-03T18:24:13.572Z,13.07
2022-11-03T18:26:42.463Z,13.08
2022-11-03T18:29:10.947Z,12.97
2022-11-03T18:31:42.352Z,12.76
2022-11-03T18:34:14.228Z,12.80
2022-11-03T18:36:44.443Z,12.78
2022-11-03T18:39:23.444Z,12.70
2022-11-03T18:41:51.628Z,12.80
2022-11-03T18:44:22.107Z,12.91
2022-11-03T18:46:51.474Z,12.85
2022-11-03T18:49:19.749Z,12.84
2022-11-03T18:51:51.952Z,12.84
2022-11-03T18:54:21.570Z,12.68
2022-11-03T18:56:50.092Z,12.66
2022-11-03T18:59:22.407Z,12.61
2022-11-03T19:01:50.858Z,12.54
2022-11-03T19:04:18.869Z,12.52
2022-11-03T19:06:48.973Z,12.52
2022-11-03T19:09:21.814Z,12.43
2022-11-03T19:11:51.250Z,12.32
2022-11-03T19:14:24.929Z,12.50
2022-11-03T19:17:24.361Z,12.63
2022-11-03T19:19:42.506Z,12.68
2022-11-03T19:22:14.165Z,12.55
2022-11-03T19:24:43.952Z,12.65
2022-11-03T19:27:16.554Z,12.69
2022-11-03T19:29:46.946Z,12.75
2022-11-03T19:32:19.655Z,12.59
2022-11-03T19:34:49.492Z,12.56
2022-11-03T19:37:17.683Z,12.57
2022-11-03T19:39:47.458Z,12.60
2022-11-03T19:42:28.467Z,12.52
2022-11-03T19:44:58.189Z,12.49
2022-11-03T19:47:31.605Z,12.40
2022-11-03T19:50:02.551Z,12.28
2022-11-03T19:52:32.735Z,12.21
2022-11-03T19:55:05.656Z,12.07
2022-11-03T19:57:34.461Z,12.16
2022-11-03T20:00:03.226Z,12.20
2022-11-03T20:02:31.613Z,12.18
2022-11-03T20:04:59.878Z,12.13
2022-11-03T20:07:31.485Z,12.13
2022-11-03T20:10:02.661Z,12.11
2022-11-03T20:12:32.408Z,11.99
2022-11-03T20:15:00.332Z,12.12
2022-11-03T20:17:28.937Z,12.09
2022-11-03T20:19:57.106Z,12.22
2022-11-03T20:22:31.264Z,12.20
2022-11-03T20:25:03.215Z,12.12
2022-11-03T20:27:33.822Z,12.17
2022-11-03T20:30:02.989Z,12.13
2022-11-03T20:32:31.135Z,12.15
2022-11-03T20:34:59.036Z,12.05
2022-11-03T20:37:27.370Z,12.10
2022-11-03T20:39:55.442Z,12.10
2022-11-03T20:42:25.694Z,12.08
2022-11-03T20:44:55.155Z,12.10
2022-11-03T20:47:23.301Z,12.06
2022-11-03T20:49:51.327Z,12.06
2022-11-03T20:52:19.298Z,11.93
2022-11-03T20:54:47.202Z,11.92
2022-11-03T20:57:15.366Z,11.88
2022-11-03T20:59:43.358Z,11.86
2022-11-03T21:02:14.444Z,11.83
2022-11-03T21:04:44.010Z,11.77
2022-11-03T21:07:14.219Z,11.71
2022-11-03T21:09:42.184Z,11.60
2022-11-03T21:12:13.579Z,11.78
2022-11-03T21:15:04.140Z,11.97
2022-11-03T21:17:51.394Z,12.31
2022-11-03T21:20:19.533Z,12.41
2022-11-03T21:22:54.782Z,12.52
2022-11-03T21:25:24.693Z,12.73
2022-11-03T21:28:04.485Z,12.82
2022-11-03T21:30:32.399Z,12.86
2022-11-03T21:33:01.808Z,12.96
2022-11-03T21:35:29.701Z,12.87
2022-11-03T21:37:57.678Z,12.97
2022-11-03T21:40:25.710Z,12.88
2022-11-03T21:43:10.838Z,12.65
2022-11-03T21:45:38.903Z,12.64
2022-11-03T21:48:25.825Z,12.80
2022-11-03T21:50:53.778Z,12.73
2022-11-03T21:53:21.786Z,12.78
2022-11-03T21:55:50.242Z,12.76
2022-11-03T21:58:18.247Z,12.80
2022-11-03T22:00:47.270Z,12.74
2022-11-03T22:03:16.796Z,12.82
2022-11-03T22:05:44.830Z,12.65
2022-11-03T22:08:12.715Z,12.73
2022-11-03T22:10:41.078Z,12.61
2022-11-03T22:13:09.547Z,12.56
2022-11-03T22:15:55.436Z,12.58
2022-11-03T22:18:25.069Z,12.57
2022-11-03T22:21:10.246Z,12.49
2022-11-03T22:23:55.837Z,12.18
2022-11-03T22:26:41.180Z,12.11
2022-11-03T22:29:26.287Z,12.17
2022-11-03T22:31:54.185Z,12.14
2022-11-03T22:34:41.372Z,12.24
2022-11-03T22:37:09.285Z,12.17
2022-11-03T22:39:54.790Z,12.12
2022-11-03T22:42:40.366Z,12.17
2022-11-03T22:45:28.410Z,12.32
2022-11-03T22:47:57.486Z,12.33
2022-11-03T22:50:27.039Z,12.37
2022-11-03T22:52:54.942Z,12.23
2022-11-03T22:55:22.293Z,12.09
2022-11-03T22:57:50.264Z,12.13
2022-11-03T23:00:20.473Z,11.97
2022-11-03T23:02:48.528Z,11.82
2022-11-03T23:05:16.636Z,11.79
2022-11-03T23:07:45.981Z,11.69
2022-11-03T23:10:14.042Z,11.76
2022-11-03T23:12:42.089Z,11.60
2022-11-03T23:15:28.099Z,11.52
2022-11-03T23:18:13.566Z,11.48
2022-11-03T23:20:59.010Z,11.54
2022-11-03T23:23:46.142Z,11.61
2022-11-03T23:26:14.187Z,11.54
2022-11-03T23:28:42.176Z,11.67
2022-11-03T23:31:11.760Z,11.67
2022-11-03T23:33:39.833Z,11.58
2022-11-03T23:36:09.978Z,11.67
2022-11-03T23:38:40.724Z,11.69
2022-11-03T23:41:10.542Z,11.70
2022-11-03T23:43:38.578Z,11.85
2022-11-03T23:46:24.163Z,11.98
2022-11-03T23:48:53.411Z,12.03
2022-11-03T23:51:22.678Z,12.22
2022-11-03T23:53:52.616Z,12.22
2022-11-03T23:56:40.383Z,12.29
2022-11-03T23:59:09.025Z,12.34
